createdAt,value
2016-04-27T00:00:08.841Z,986.84
2016-04-27T00:01:08.906Z,986.87
2016-04-27T00:02:08.909Z,986.89
2016-04-27T00:03:08.943Z,986.94
2016-04-27T00:04:08.977Z,986.9
2016-04-27T00:05:09.010Z,986.97
2016-04-27T00:06:10.998Z,986.95
2016-04-27T00:07:09.078Z,986.94
2016-04-27T00:08:09.113Z,986.91
2016-04-27T00:09:09.146Z,986.93
2016-04-27T00:10:09.180Z,986.93
2016-04-27T00:11:09.214Z,986.95
2016-04-27T00:12:09.279Z,986.97
2016-04-27T00:13:09.298Z,986.93
2016-04-27T00:14:09.331Z,987.03
2016-04-27T00:15:09.350Z,987.01
2016-04-27T00:16:09.383Z,986.93
2016-04-27T00:17:09.417Z,986.96
2016-04-27T00:18:09.467Z,986.86
2016-04-27T00:19:09.485Z,986.88
2016-04-27T00:20:09.536Z,986.86
2016-04-27T00:21:09.553Z,986.94
2016-04-27T00:22:13.275Z,986.94
2016-04-27T00:23:09.637Z,986.92
2016-04-27T00:24:09.671Z,987
2016-04-27T00:25:09.705Z,986.99
2016-04-27T00:26:09.738Z,987
2016-04-27T00:27:09.772Z,986.98
2016-04-27T00:28:09.807Z,986.91
2016-04-27T00:29:09.841Z,986.95
2016-04-27T00:30:09.874Z,986.95
2016-04-27T00:31:09.908Z,986.98
2016-04-27T00:32:09.943Z,986.93
2016-04-27T00:33:09.977Z,986.95
2016-04-27T00:34:10.026Z,986.92
2016-04-27T00:35:10.044Z,986.99
2016-04-27T00:36:10.078Z,986.99
2016-04-27T00:37:10.112Z,986.99
2016-04-27T00:38:10.146Z,986.99
2016-04-27T00:39:10.179Z,987.03
2016-04-27T00:40:10.201Z,987.05
2016-04-27T00:41:10.236Z,987.07
2016-04-27T00:42:10.275Z,987.08
2016-04-27T00:43:10.314Z,987.07
2016-04-27T00:44:10.361Z,987.11
2016-04-27T00:45:10.434Z,987.11
2016-04-27T00:46:10.405Z,987.13
2016-04-27T00:47:10.439Z,987.1
2016-04-27T00:48:10.473Z,987.15
2016-04-27T00:49:10.507Z,987.15
2016-04-27T00:50:10.541Z,987.23
2016-04-27T00:51:10.590Z,987.17
2016-04-27T00:52:10.640Z,987.15
2016-04-27T00:53:10.640Z,987.16
2016-04-27T00:54:10.769Z,987.14
2016-04-27T00:55:10.707Z,987.18
2016-04-27T00:56:10.758Z,987.16
2016-04-27T00:57:10.776Z,987.2
2016-04-27T00:58:10.825Z,987.11
2016-04-27T00:59:10.862Z,987.2
2016-04-27T01:00:10.896Z,987.21
2016-04-27T01:01:10.930Z,987.17
2016-04-27T01:02:10.964Z,987.18
2016-04-27T01:03:11.029Z,987.19
2016-04-27T01:04:11.032Z,987.23
2016-04-27T01:05:11.065Z,987.21
2016-04-27T01:06:11.100Z,987.23
2016-04-27T01:07:11.133Z,987.2
2016-04-27T01:08:11.167Z,987.15
2016-04-27T01:09:11.202Z,987.19
2016-04-27T01:10:11.235Z,987.15
2016-04-27T01:11:11.268Z,987.19
2016-04-27T01:12:11.303Z,987.2
2016-04-27T01:13:11.337Z,987.22
2016-04-27T01:14:11.402Z,987.31
2016-04-27T01:15:11.404Z,987.2
2016-04-27T01:16:11.439Z,987.25
2016-04-27T01:17:11.473Z,987.24
2016-04-27T01:18:11.522Z,987.3
2016-04-27T01:19:11.540Z,987.28
2016-04-27T01:20:11.575Z,987.25
2016-04-27T01:21:11.639Z,987.31
2016-04-27T01:22:11.632Z,987.28
2016-04-27T01:23:11.683Z,987.3
2016-04-27T01:24:11.702Z,987.29
2016-04-27T01:25:11.752Z,987.28
2016-04-27T01:26:11.770Z,987.29
2016-04-27T01:27:11.804Z,987.33
2016-04-27T01:28:11.838Z,987.36
2016-04-27T01:29:11.872Z,987.32
2016-04-27T01:30:11.906Z,987.36
2016-04-27T01:31:11.940Z,987.36
2016-04-27T01:32:11.974Z,987.37
2016-04-27T01:33:12.008Z,987.37
2016-04-27T01:34:12.058Z,987.37
2016-04-27T01:35:12.076Z,987.37
2016-04-27T01:36:12.110Z,987.39
2016-04-27T01:37:12.144Z,987.39
2016-04-27T01:38:12.177Z,987.4
2016-04-27T01:39:12.212Z,987.39
2016-04-27T01:40:12.260Z,987.42
2016-04-27T01:41:12.279Z,987.39
2016-04-27T01:42:12.329Z,987.44
2016-04-27T01:43:12.362Z,987.45
2016-04-27T01:44:12.428Z,987.48
2016-04-27T01:45:12.431Z,987.45
2016-04-27T01:46:12.465Z,987.46
2016-04-27T01:47:12.498Z,987.49
2016-04-27T01:48:12.532Z,987.48
2016-04-27T01:49:12.567Z,987.53
2016-04-27T01:50:12.586Z,987.53
2016-04-27T01:51:13.135Z,987.49
2016-04-27T01:52:12.669Z,987.56
2016-04-27T01:53:12.704Z,987.55
2016-04-27T01:54:12.737Z,987.54
2016-04-27T01:55:12.770Z,987.55
2016-04-27T01:56:12.805Z,987.57
2016-04-27T01:57:12.839Z,987.59
2016-04-27T01:58:12.873Z,987.6
2016-04-27T01:59:12.906Z,987.68
2016-04-27T02:00:12.940Z,987.65
2016-04-27T02:01:12.990Z,987.63
2016-04-27T02:02:13.009Z,987.65
2016-04-27T02:03:13.058Z,987.71
2016-04-27T02:04:13.076Z,987.74
2016-04-27T02:05:13.111Z,987.72
2016-04-27T02:06:13.145Z,987.8
2016-04-27T02:07:13.209Z,987.79
2016-04-27T02:08:13.212Z,987.85
2016-04-27T02:09:13.247Z,987.8
2016-04-27T02:10:13.281Z,987.84
2016-04-27T02:11:13.314Z,987.86
2016-04-27T02:12:13.347Z,987.9
2016-04-27T02:13:13.382Z,987.87
2016-04-27T02:14:13.416Z,987.93
2016-04-27T02:15:13.449Z,987.89
2016-04-27T02:16:13.483Z,987.95
2016-04-27T02:17:13.518Z,987.94
2016-04-27T02:18:13.552Z,987.99
2016-04-27T02:19:13.585Z,988.01
2016-04-27T02:20:13.619Z,988.02
2016-04-27T02:21:13.654Z,988.08
2016-04-27T02:22:13.985Z,988.08
2016-04-27T02:23:13.721Z,988.05
2016-04-27T02:24:13.755Z,988.06
2016-04-27T02:25:13.790Z,988.01
2016-04-27T02:26:13.824Z,988.06
2016-04-27T02:27:13.856Z,988.08
2016-04-27T02:28:13.890Z,988.06
2016-04-27T02:29:13.957Z,988.11
2016-04-27T02:30:13.959Z,988.16
2016-04-27T02:31:13.992Z,988.12
2016-04-27T02:32:14.026Z,988.14
2016-04-27T02:33:14.061Z,988.12
2016-04-27T02:34:14.095Z,988.18
2016-04-27T02:35:14.128Z,988.17
2016-04-27T02:36:14.163Z,988.16
2016-04-27T02:37:14.196Z,988.17
2016-04-27T02:38:14.231Z,988.15
2016-04-27T02:39:14.264Z,988.18
2016-04-27T02:40:14.298Z,988.19
2016-04-27T02:41:14.333Z,988.24
2016-04-27T02:42:14.374Z,988.28
2016-04-27T02:43:14.699Z,988.26
2016-04-27T02:44:14.480Z,988.27
2016-04-27T02:45:14.556Z,988.24
2016-04-27T02:46:14.633Z,988.29
2016-04-27T02:47:14.708Z,988.24
2016-04-27T02:48:14.794Z,988.22
2016-04-27T02:49:14.829Z,988.14
2016-04-27T02:50:14.878Z,988.19
2016-04-27T02:51:14.928Z,988.2
2016-04-27T02:52:15.055Z,988.12
2016-04-27T02:53:15.024Z,988.14
2016-04-27T02:54:15.064Z,988.08
2016-04-27T02:55:15.102Z,988.16
2016-04-27T02:56:15.142Z,988.13
2016-04-27T02:57:15.181Z,988.14
2016-04-27T02:58:15.220Z,988.12
2016-04-27T02:59:15.255Z,988.08
2016-04-27T03:00:15.292Z,988.14
2016-04-27T03:01:15.328Z,988.07
2016-04-27T03:02:15.363Z,988.09
2016-04-27T03:03:15.415Z,988.1
2016-04-27T03:04:15.433Z,988.11
2016-04-27T03:05:15.469Z,988.11
2016-04-27T03:06:15.503Z,988.1
2016-04-27T03:07:16.023Z,988.13
2016-04-27T03:08:15.635Z,988.27
2016-04-27T03:09:15.607Z,988.17
2016-04-27T03:10:15.642Z,988.22
2016-04-27T03:11:15.675Z,988.16
2016-04-27T03:12:15.709Z,988.22
2016-04-27T03:13:15.745Z,988.23
2016-04-27T03:14:15.779Z,988.18
2016-04-27T03:15:15.812Z,988.22
2016-04-27T03:16:15.845Z,988.23
2016-04-27T03:17:15.880Z,988.23
2016-04-27T03:18:15.930Z,988.23
2016-04-27T03:19:15.947Z,988.21
2016-04-27T03:20:15.981Z,988.21
2016-04-27T03:21:16.016Z,988.22
2016-04-27T03:22:16.753Z,988.24
2016-04-27T03:23:16.083Z,988.2
2016-04-27T03:24:16.117Z,988.23
2016-04-27T03:25:16.152Z,988.22
2016-04-27T03:26:16.186Z,988.23
2016-04-27T03:27:16.219Z,988.26
2016-04-27T03:28:16.252Z,988.23
2016-04-27T03:29:16.288Z,988.3
2016-04-27T03:30:16.321Z,988.28
2016-04-27T03:31:16.355Z,988.32
2016-04-27T03:32:16.389Z,988.29
2016-04-27T03:33:16.470Z,988.29
2016-04-27T03:34:16.457Z,988.32
2016-04-27T03:35:16.491Z,988.3
2016-04-27T03:36:17.587Z,988.33
2016-04-27T03:37:17.512Z,988.28
2016-04-27T03:38:16.593Z,988.33
2016-04-27T03:39:16.626Z,988.28
2016-04-27T03:40:16.660Z,988.32
2016-04-27T03:41:16.695Z,988.33
2016-04-27T03:42:16.728Z,988.35
2016-04-27T03:43:16.762Z,988.38
2016-04-27T03:44:16.796Z,988.38
2016-04-27T03:45:16.830Z,988.36
2016-04-27T03:46:16.864Z,988.41
2016-04-27T03:47:16.898Z,988.4
2016-04-27T03:48:16.948Z,988.4
2016-04-27T03:49:16.966Z,988.41
2016-04-27T03:50:17.000Z,988.42
2016-04-27T03:51:17.049Z,988.41
2016-04-27T03:52:17.068Z,988.4
2016-04-27T03:53:17.102Z,988.38
2016-04-27T03:54:17.136Z,988.37
2016-04-27T03:55:17.170Z,988.44
2016-04-27T03:56:17.203Z,988.43
2016-04-27T03:57:17.238Z,988.44
2016-04-27T03:58:17.271Z,988.43
2016-04-27T03:59:17.321Z,988.45
2016-04-27T04:00:17.355Z,988.48
2016-04-27T04:01:17.373Z,988.46
2016-04-27T04:02:17.407Z,988.49
2016-04-27T04:03:17.441Z,988.46
2016-04-27T04:04:17.475Z,988.48
2016-04-27T04:05:17.510Z,988.47
2016-04-27T04:06:17.544Z,988.52
2016-04-27T04:07:17.577Z,988.5
2016-04-27T04:08:17.611Z,988.53
2016-04-27T04:09:17.646Z,988.58
2016-04-27T04:10:17.711Z,988.6
2016-04-27T04:11:17.713Z,988.56
2016-04-27T04:12:17.748Z,988.56
2016-04-27T04:13:17.782Z,988.57
2016-04-27T04:14:17.815Z,988.6
2016-04-27T04:15:17.849Z,988.64
2016-04-27T04:16:17.883Z,988.63
2016-04-27T04:17:17.917Z,988.58
2016-04-27T04:18:17.952Z,988.62
2016-04-27T04:19:18.001Z,988.66
2016-04-27T04:20:18.019Z,988.59
2016-04-27T04:21:18.476Z,988.6
2016-04-27T04:22:18.091Z,988.56
2016-04-27T04:23:18.125Z,988.52
2016-04-27T04:24:18.158Z,988.55
2016-04-27T04:25:18.193Z,988.55
2016-04-27T04:26:18.226Z,988.51
2016-04-27T04:27:18.261Z,988.5
2016-04-27T04:28:18.294Z,988.53
2016-04-27T04:29:18.329Z,988.54
2016-04-27T04:30:18.363Z,988.47
2016-04-27T04:31:18.397Z,988.48
2016-04-27T04:32:18.446Z,988.49
2016-04-27T04:33:18.465Z,988.48
2016-04-27T04:34:18.498Z,988.44
2016-04-27T04:35:18.532Z,988.49
2016-04-27T04:36:18.565Z,988.51
2016-04-27T04:37:18.600Z,988.49
2016-04-27T04:38:18.634Z,988.46
2016-04-27T04:39:18.668Z,988.52
2016-04-27T04:40:18.701Z,988.51
2016-04-27T04:41:18.736Z,988.65
2016-04-27T04:42:18.770Z,988.51
2016-04-27T04:43:18.803Z,988.55
2016-04-27T04:44:18.838Z,988.59
2016-04-27T04:45:18.872Z,988.65
2016-04-27T04:46:18.906Z,988.61
2016-04-27T04:47:18.939Z,988.6
2016-04-27T04:48:18.973Z,988.55
2016-04-27T04:49:19.008Z,988.64
2016-04-27T04:50:19.056Z,988.59
2016-04-27T04:51:19.075Z,988.56
2016-04-27T04:52:19.109Z,988.53
2016-04-27T04:53:19.143Z,988.54
2016-04-27T04:54:19.178Z,988.57
2016-04-27T04:55:19.211Z,988.56
2016-04-27T04:56:21.385Z,988.58
2016-04-27T04:57:19.279Z,988.55
2016-04-27T04:58:19.313Z,988.54
2016-04-27T04:59:19.346Z,988.65
2016-04-27T05:00:19.380Z,988.66
2016-04-27T05:01:19.431Z,988.64
2016-04-27T05:02:19.449Z,988.63
2016-04-27T05:03:19.483Z,988.62
2016-04-27T05:04:19.516Z,988.67
2016-04-27T05:05:19.551Z,988.69
2016-04-27T05:06:19.585Z,988.65
2016-04-27T05:07:19.618Z,988.62
2016-04-27T05:08:19.652Z,988.6
2016-04-27T05:09:19.686Z,988.59
2016-04-27T05:10:19.720Z,988.59
2016-04-27T05:11:19.754Z,988.64
2016-04-27T05:12:19.804Z,988.66
2016-04-27T05:13:19.838Z,988.61
2016-04-27T05:14:19.871Z,988.59
2016-04-27T05:15:19.906Z,988.65
2016-04-27T05:16:19.923Z,988.59
2016-04-27T05:17:19.973Z,988.6
2016-04-27T05:18:20.100Z,988.64
2016-04-27T05:19:20.150Z,988.69
2016-04-27T05:20:20.075Z,988.67
2016-04-27T05:21:20.109Z,988.62
2016-04-27T05:22:20.143Z,988.65
2016-04-27T05:23:20.177Z,988.65
2016-04-27T05:24:20.211Z,988.7
2016-04-27T05:25:20.369Z,988.71
2016-04-27T05:26:20.278Z,988.72
2016-04-27T05:27:20.313Z,988.7
2016-04-27T05:28:20.346Z,988.74
2016-04-27T05:29:20.694Z,988.85
2016-04-27T05:30:20.414Z,988.84
2016-04-27T05:31:20.449Z,988.83
2016-04-27T05:32:20.483Z,988.89
2016-04-27T05:33:20.516Z,988.84
2016-04-27T05:34:20.660Z,989
2016-04-27T05:35:20.584Z,988.82
2016-04-27T05:36:20.618Z,988.89
2016-04-27T05:37:20.902Z,988.99
2016-04-27T05:38:20.702Z,989.03
2016-04-27T05:39:20.829Z,989
2016-04-27T05:40:20.770Z,988.97
2016-04-27T05:41:20.788Z,989.03
2016-04-27T05:42:20.821Z,989.02
2016-04-27T05:43:20.856Z,989.05
2016-04-27T05:44:20.905Z,989.04
2016-04-27T05:45:20.986Z,989.01
2016-04-27T05:46:20.973Z,989.02
2016-04-27T05:47:21.070Z,989.1
2016-04-27T05:48:21.167Z,989.03
2016-04-27T05:49:21.450Z,989.06
2016-04-27T05:50:21.109Z,989.05
2016-04-27T05:51:21.142Z,989.07
2016-04-27T05:52:21.302Z,989.09
2016-04-27T05:53:21.211Z,989.24
2016-04-27T05:54:21.245Z,989.1
2016-04-27T05:55:21.278Z,989.13
2016-04-27T05:56:21.313Z,989.13
2016-04-27T05:57:21.347Z,989.13
2016-04-27T05:58:21.381Z,989.18
2016-04-27T05:59:21.836Z,989.16
2016-04-27T06:00:21.449Z,989.19
2016-04-27T06:01:21.482Z,989.17
2016-04-27T06:02:21.516Z,989.23
2016-04-27T06:03:21.566Z,989.2
2016-04-27T06:04:21.616Z,989.28
2016-04-27T06:05:21.633Z,989.24
2016-04-27T06:06:21.668Z,989.21
2016-04-27T06:07:21.857Z,989.24
2016-04-27T06:08:21.735Z,989.46
2016-04-27T06:09:21.769Z,989.3
2016-04-27T06:10:21.803Z,989.21
2016-04-27T06:11:21.838Z,989.24
2016-04-27T06:12:21.965Z,989.21
2016-04-27T06:13:22.327Z,989.4
2016-04-27T06:14:22.315Z,989.27
2016-04-27T06:15:22.348Z,989.23
2016-04-27T06:16:22.179Z,989.2
2016-04-27T06:17:22.306Z,989.29
2016-04-27T06:18:22.356Z,989.51
2016-04-27T06:19:22.218Z,989.53
2016-04-27T06:20:22.298Z,989.32
2016-04-27T06:21:22.271Z,989.33
2016-04-27T06:22:22.398Z,989.3
2016-04-27T06:23:22.526Z,989.31
2016-04-27T06:24:22.623Z,989.38
2016-04-27T06:25:22.453Z,989.28
2016-04-27T06:26:22.628Z,989.33
2016-04-27T06:27:22.458Z,989.31
2016-04-27T06:28:22.586Z,989.33
2016-04-27T06:29:22.620Z,989.5
2016-04-27T06:30:22.794Z,989.21
2016-04-27T06:31:22.813Z,989.25
2016-04-27T06:32:22.581Z,989.33
2016-04-27T06:33:22.740Z,989.33
2016-04-27T06:34:22.821Z,989.56
2016-04-27T06:35:22.793Z,989.33
2016-04-27T06:36:22.982Z,989.32
2016-04-27T06:37:22.969Z,989.28
2016-04-27T06:38:23.206Z,989.27
2016-04-27T06:39:23.163Z,989.35
2016-04-27T06:40:23.009Z,989.42
2016-04-27T06:41:23.043Z,989.27
2016-04-27T06:42:23.124Z,989.42
2016-04-27T06:43:23.095Z,989.28
2016-04-27T06:44:23.317Z,989.56
2016-04-27T06:45:23.304Z,989.37
2016-04-27T06:46:23.306Z,989.26
2016-04-27T06:47:23.418Z,989.37
2016-04-27T06:48:23.609Z,989.29
2016-04-27T06:49:23.284Z,989.61
2016-04-27T06:50:23.568Z,989.43
2016-04-27T06:51:23.351Z,989.43
2016-04-27T06:52:23.369Z,989.35
2016-04-27T06:53:23.435Z,989.45
2016-04-27T06:54:23.469Z,989.38
2016-04-27T06:55:23.456Z,989.52
2016-04-27T06:56:23.645Z,989.53
2016-04-27T06:57:23.617Z,989.43
2016-04-27T06:58:23.573Z,989.41
2016-04-27T06:59:23.748Z,989.59
2016-04-27T07:00:23.688Z,989.4
2016-04-27T07:01:23.941Z,989.56
2016-04-27T07:02:23.975Z,989.42
2016-04-27T07:03:23.711Z,989.59
2016-04-27T07:04:23.996Z,989.56
2016-04-27T07:05:23.763Z,989.46
2016-04-27T07:06:23.797Z,989.51
2016-04-27T07:07:23.910Z,989.54
2016-04-27T07:08:23.928Z,989.52
2016-04-27T07:09:23.900Z,989.65
2016-04-27T07:10:23.949Z,989.49
2016-04-27T07:11:24.061Z,989.48
2016-04-27T07:12:24.143Z,989.48
2016-04-27T07:13:24.082Z,989.79
2016-04-27T07:14:24.085Z,989.5
2016-04-27T07:15:24.134Z,989.56
2016-04-27T07:16:24.168Z,989.48
2016-04-27T07:17:24.202Z,989.45
2016-04-27T07:18:24.268Z,989.55
2016-04-27T07:19:24.271Z,989.6
2016-04-27T07:20:24.320Z,989.54
2016-04-27T07:21:24.354Z,989.54
2016-04-27T07:22:25.262Z,989.55
2016-04-27T07:23:24.422Z,989.65
2016-04-27T07:24:24.455Z,989.53
2016-04-27T07:25:24.506Z,989.65
2016-04-27T07:26:24.898Z,989.73
2016-04-27T07:27:24.572Z,989.51
2016-04-27T07:28:24.623Z,989.56
2016-04-27T07:29:24.656Z,989.61
2016-04-27T07:30:24.690Z,989.61
2016-04-27T07:31:24.725Z,989.57
2016-04-27T07:32:24.961Z,989.52
2016-04-27T07:33:25.058Z,989.56
2016-04-27T07:34:24.842Z,989.63
2016-04-27T07:35:24.907Z,989.48
2016-04-27T07:36:24.910Z,989.53
2016-04-27T07:37:24.944Z,989.52
2016-04-27T07:38:25.368Z,989.47
2016-04-27T07:39:25.043Z,989.69
2016-04-27T07:40:25.124Z,989.54
2016-04-27T07:41:25.095Z,989.59
2016-04-27T07:42:25.144Z,989.5
2016-04-27T07:43:25.179Z,989.62
2016-04-27T07:44:25.635Z,989.63
2016-04-27T07:45:25.777Z,989.68
2016-04-27T07:46:25.639Z,989.51
2016-04-27T07:47:25.721Z,989.44
2016-04-27T07:48:25.568Z,989.81
2016-04-27T07:49:25.617Z,989.93
2016-04-27T07:50:26.682Z,989.64
2016-04-27T07:51:25.606Z,989.63
2016-04-27T07:52:26.921Z,989.63
2016-04-27T07:53:25.612Z,989.6
2016-04-27T07:54:25.770Z,989.69
2016-04-27T07:55:25.617Z,989.65
2016-04-27T07:56:25.714Z,989.76
2016-04-27T07:57:25.684Z,989.65
2016-04-27T07:58:25.734Z,989.79
2016-04-27T07:59:25.768Z,989.68
2016-04-27T08:00:25.802Z,989.83
2016-04-27T08:01:25.899Z,989.73
2016-04-27T08:02:25.886Z,989.65
2016-04-27T08:03:25.920Z,989.83
2016-04-27T08:04:25.953Z,989.81
2016-04-27T08:05:25.988Z,989.78
2016-04-27T08:06:26.021Z,989.72
2016-04-27T08:07:26.056Z,989.77
2016-04-27T08:08:26.371Z,989.81
2016-04-27T08:09:26.139Z,989.9
2016-04-27T08:10:26.173Z,989.86
2016-04-27T08:11:26.222Z,989.84
2016-04-27T08:12:26.257Z,990.05
2016-04-27T08:13:26.399Z,989.87
2016-04-27T08:14:26.496Z,989.94
2016-04-27T08:15:26.374Z,989.83
2016-04-27T08:16:26.408Z,989.67
2016-04-27T08:17:26.442Z,989.88
2016-04-27T08:18:26.476Z,989.72
2016-04-27T08:19:26.603Z,989.83
2016-04-27T08:20:26.654Z,989.83
2016-04-27T08:21:26.609Z,989.78
2016-04-27T08:22:26.674Z,989.82
2016-04-27T08:23:28.099Z,989.9
2016-04-27T08:24:27.023Z,989.73
2016-04-27T08:25:26.807Z,989.9
2016-04-27T08:26:26.950Z,989.91
2016-04-27T08:27:27.125Z,989.86
2016-04-27T08:28:26.955Z,989.86
2016-04-27T08:29:26.896Z,989.83
2016-04-27T08:30:27.367Z,989.92
2016-04-27T08:31:27.230Z,989.95
2016-04-27T08:32:27.323Z,989.88
2016-04-27T08:33:27.294Z,989.92
2016-04-27T08:34:27.298Z,989.91
2016-04-27T08:35:27.425Z,989.91
2016-04-27T08:36:27.161Z,989.95
2016-04-27T08:37:27.228Z,990.02
2016-04-27T08:38:27.511Z,989.94
2016-04-27T08:39:27.686Z,989.98
2016-04-27T08:40:27.672Z,990.18
2016-04-27T08:41:27.722Z,990.33
2016-04-27T08:42:27.647Z,989.94
2016-04-27T08:43:27.602Z,990.08
2016-04-27T08:44:27.933Z,990.05
2016-04-27T08:45:27.514Z,990.01
2016-04-27T08:46:27.674Z,990.12
2016-04-27T08:47:27.785Z,990.16
2016-04-27T08:48:27.709Z,990.4
2016-04-27T08:49:27.666Z,990.31
2016-04-27T08:50:30.965Z,990.15
2016-04-27T08:51:28.062Z,990.09
2016-04-27T08:52:27.862Z,990.16
2016-04-27T08:53:29.082Z,990.18
2016-04-27T08:54:27.851Z,990.13
2016-04-27T08:55:27.884Z,990.14
2016-04-27T08:56:27.951Z,990.07
2016-04-27T08:57:28.297Z,990.21
2016-04-27T08:58:28.002Z,990.21
2016-04-27T08:59:28.131Z,990.19
2016-04-27T09:00:28.086Z,990.09
2016-04-27T09:01:28.120Z,990.33
2016-04-27T09:02:28.169Z,990.24
2016-04-27T09:03:28.250Z,990.32
2016-04-27T09:04:28.831Z,990.25
2016-04-27T09:05:28.381Z,990.35
2016-04-27T09:06:28.321Z,990.2
2016-04-27T09:07:28.620Z,990.24
2016-04-27T09:08:28.405Z,990.33
2016-04-27T09:09:28.438Z,990.26
2016-04-27T09:10:28.472Z,990.32
2016-04-27T09:11:28.522Z,990.48
2016-04-27T09:12:28.556Z,990.52
2016-04-27T09:13:28.590Z,990.53
2016-04-27T09:14:28.748Z,990.46
2016-04-27T09:15:28.704Z,990.55
2016-04-27T09:16:28.816Z,990.45
2016-04-27T09:17:28.882Z,990.58
2016-04-27T09:18:28.807Z,990.64
2016-04-27T09:19:28.824Z,990.5
2016-04-27T09:20:28.874Z,990.55
2016-04-27T09:21:28.908Z,990.6
2016-04-27T09:22:29.770Z,990.52
2016-04-27T09:23:28.976Z,990.72
2016-04-27T09:24:29.026Z,990.48
2016-04-27T09:25:29.059Z,990.58
2016-04-27T09:26:29.109Z,990.8
2016-04-27T09:27:29.142Z,990.54
2016-04-27T09:28:29.193Z,990.54
2016-04-27T09:29:29.211Z,990.58
2016-04-27T09:30:29.261Z,990.54
2016-04-27T09:31:30.059Z,990.64
2016-04-27T09:32:29.328Z,990.63
2016-04-27T09:33:29.440Z,990.52
2016-04-27T09:34:29.412Z,990.62
2016-04-27T09:35:29.602Z,990.62
2016-04-27T09:36:29.995Z,990.56
2016-04-27T09:37:30.014Z,990.73
2016-04-27T09:38:29.625Z,990.7
2016-04-27T09:39:29.613Z,990.71
2016-04-27T09:40:29.646Z,990.67
2016-04-27T09:41:29.697Z,990.69
2016-04-27T09:42:29.714Z,990.78
2016-04-27T09:43:29.796Z,990.82
2016-04-27T09:44:29.799Z,990.74
2016-04-27T09:45:29.832Z,990.75
2016-04-27T09:46:30.288Z,990.86
2016-04-27T09:47:30.775Z,990.74
2016-04-27T09:48:30.762Z,990.81
2016-04-27T09:49:30.421Z,990.75
2016-04-27T09:50:30.455Z,990.73
2016-04-27T09:51:30.489Z,990.63
2016-04-27T09:52:30.382Z,990.9
2016-04-27T09:53:31.073Z,990.76
2016-04-27T09:54:30.622Z,990.76
2016-04-27T09:55:30.624Z,990.75
2016-04-27T09:56:30.673Z,990.8
2016-04-27T09:57:30.818Z,990.68
2016-04-27T09:58:31.117Z,990.72
2016-04-27T09:59:31.229Z,990.72
2016-04-27T10:00:30.482Z,990.73
2016-04-27T10:01:30.672Z,990.78
2016-04-27T10:02:30.659Z,990.83
2016-04-27T10:03:30.959Z,990.82
2016-04-27T10:04:30.602Z,991.14
2016-04-27T10:05:30.714Z,990.81
2016-04-27T10:06:30.811Z,991.42
2016-04-27T10:07:30.954Z,990.9
2016-04-27T10:08:31.050Z,990.91
2016-04-27T10:09:30.896Z,991
2016-04-27T10:10:30.790Z,991.16
2016-04-27T10:11:31.496Z,991.52
2016-04-27T10:12:30.982Z,991.68
2016-04-27T10:13:31.314Z,991.28
2016-04-27T10:14:31.457Z,991.01
2016-04-27T10:15:31.444Z,991.43
2016-04-27T10:16:31.040Z,991.94
2016-04-27T10:17:31.497Z,991.78
2016-04-27T10:18:31.405Z,991.77
2016-04-27T10:19:31.221Z,991.87
2016-04-27T10:20:31.224Z,991.86
2016-04-27T10:21:31.273Z,991.43
2016-04-27T10:22:31.317Z,991.05
2016-04-27T10:23:31.530Z,991.35
2016-04-27T10:24:31.908Z,991.39
2016-04-27T10:25:31.456Z,990.83
2016-04-27T10:26:32.289Z,991.45
2016-04-27T10:27:31.572Z,990.76
2016-04-27T10:28:31.638Z,990.8
2016-04-27T10:29:34.844Z,990.84
2016-04-27T10:30:31.706Z,990.89
2016-04-27T10:31:31.849Z,990.9
2016-04-27T10:32:31.945Z,990.84
2016-04-27T10:33:32.354Z,990.68
2016-04-27T10:34:31.889Z,990.59
2016-04-27T10:35:31.985Z,990.68
2016-04-27T10:36:32.253Z,990.81
2016-04-27T10:37:32.553Z,991.31
2016-04-27T10:38:32.056Z,991.55
2016-04-27T10:39:35.433Z,991.51
2016-04-27T10:40:32.295Z,991.33
2016-04-27T10:41:32.391Z,991.15
2016-04-27T10:42:35.520Z,991.55
2016-04-27T10:43:32.319Z,991.33
2016-04-27T10:44:32.322Z,991.41
2016-04-27T10:45:32.371Z,990.73
2016-04-27T10:46:32.421Z,991.31
2016-04-27T10:47:32.455Z,991.31
2016-04-27T10:48:32.770Z,991.32
2016-04-27T10:49:32.632Z,991.35
2016-04-27T10:50:32.807Z,991.35
2016-04-27T10:51:32.997Z,991.32
2016-04-27T10:52:34.140Z,991.38
2016-04-27T10:53:33.112Z,991.4
2016-04-27T10:54:32.786Z,991.1
2016-04-27T10:55:32.836Z,991.31
2016-04-27T10:56:33.182Z,991.25
2016-04-27T10:57:32.950Z,991.12
2016-04-27T10:58:33.001Z,990.97
2016-04-27T10:59:33.503Z,991.47
2016-04-27T11:00:33.697Z,991.05
2016-04-27T11:01:33.465Z,991.35
2016-04-27T11:02:33.218Z,991.44
2016-04-27T11:03:33.924Z,991.4
2016-04-27T11:04:33.708Z,991.21
2016-04-27T11:05:33.305Z,991.04
2016-04-27T11:06:33.354Z,991.08
2016-04-27T11:07:34.074Z,991.37
2016-04-27T11:08:33.453Z,991.36
2016-04-27T11:09:34.424Z,991.15
2016-04-27T11:10:33.536Z,991.14
2016-04-27T11:11:33.586Z,991.26
2016-04-27T11:12:33.635Z,991.25
2016-04-27T11:13:33.685Z,991.16
2016-04-27T11:14:33.735Z,991.25
2016-04-27T11:15:33.768Z,991.29
2016-04-27T11:16:33.818Z,991.5
2016-04-27T11:17:33.867Z,991.38
2016-04-27T11:18:34.058Z,991.5
2016-04-27T11:19:33.951Z,991.36
2016-04-27T11:20:34.001Z,991.23
2016-04-27T11:21:34.050Z,991.37
2016-04-27T11:22:34.428Z,991.3
2016-04-27T11:23:34.134Z,991.23
2016-04-27T11:24:34.183Z,991.24
2016-04-27T11:25:34.264Z,991.22
2016-04-27T11:26:34.267Z,991.27
2016-04-27T11:27:34.316Z,991.21
2016-04-27T11:28:34.366Z,991.43
2016-04-27T11:29:34.416Z,991.26
2016-04-27T11:30:34.465Z,991.22
2016-04-27T15:25:44.637Z,992.3
2016-04-27T15:27:37.971Z,992.42
2016-04-27T15:28:38.005Z,992.54
2016-04-27T15:29:38.054Z,992.57
2016-04-27T15:30:38.103Z,992.54
2016-04-27T15:31:38.137Z,992.5
2016-04-27T15:32:38.343Z,992.52
2016-04-27T15:33:38.220Z,992.72
2016-04-27T15:34:38.270Z,992.45
2016-04-27T15:35:38.305Z,992.57
2016-04-27T15:36:38.354Z,992.58
2016-04-27T15:37:38.388Z,992.58
2016-04-27T15:38:41.563Z,992.68
2016-04-27T15:39:38.486Z,992.62
2016-04-27T15:40:38.521Z,992.7
2016-04-27T15:41:38.571Z,992.51
2016-04-27T15:42:38.620Z,992.72
2016-04-27T15:43:38.669Z,992.71
2016-04-27T15:44:38.704Z,992.83
2016-04-27T15:45:38.941Z,992.72
2016-04-27T15:46:38.802Z,992.6
2016-04-27T15:47:38.852Z,992.71
2016-04-27T15:48:38.902Z,992.77
2016-04-27T15:49:38.952Z,992.63
2016-04-27T15:50:38.986Z,992.55
2016-04-27T15:51:39.035Z,992.63
2016-04-27T15:52:39.069Z,992.68
2016-04-27T15:53:39.149Z,992.66
2016-04-27T15:54:39.168Z,992.66
2016-04-27T15:55:39.201Z,992.67
2016-04-27T15:56:39.252Z,992.72
2016-04-27T15:57:39.505Z,992.76
2016-04-27T15:58:39.335Z,992.74
2016-04-27T15:59:39.384Z,992.69
2016-04-27T16:00:39.434Z,992.72
2016-04-27T16:01:39.468Z,992.7
2016-04-27T16:02:39.518Z,992.63
2016-04-27T16:03:39.552Z,992.62
2016-04-27T16:04:39.601Z,992.99
2016-04-27T16:05:39.651Z,992.78
2016-04-27T16:06:39.700Z,992.83
2016-04-27T16:07:39.734Z,992.73
2016-04-27T16:08:39.769Z,992.88
2016-04-27T16:09:40.052Z,992.79
2016-04-27T16:10:39.867Z,992.9
2016-04-27T16:11:39.902Z,992.9
2016-04-27T16:12:39.951Z,992.66
2016-04-27T16:13:40.000Z,992.9
2016-04-27T16:14:40.035Z,992.8
2016-04-27T16:15:40.083Z,992.77
2016-04-27T16:16:40.133Z,992.81
2016-04-27T16:17:40.168Z,992.88
2016-04-27T16:18:40.217Z,992.91
2016-04-27T16:19:40.266Z,992.88
2016-04-27T16:20:40.316Z,993
2016-04-27T16:21:40.350Z,992.85
2016-04-27T16:22:40.399Z,992.97
2016-04-27T16:23:40.449Z,992.76
2016-04-27T16:24:40.482Z,992.84
2016-04-27T16:25:40.533Z,992.82
2016-04-27T16:26:40.599Z,992.94